createdAt,value
2024-05-09T00:00:43.752Z,58.31
2024-05-09T00:03:31.898Z,58.44
2024-05-09T00:05:59.773Z,58.45
2024-05-09T00:08:27.632Z,58.78
2024-05-09T00:10:55.290Z,58.76
2024-05-09T00:13:23.002Z,59.18
2024-05-09T00:15:50.650Z,59.51
2024-05-09T00:18:18.481Z,59.50
2024-05-09T00:20:46.437Z,59.39
2024-05-09T00:23:14.280Z,59.62
2024-05-09T00:25:45.518Z,59.70
2024-05-09T00:28:13.601Z,59.82
2024-05-09T00:30:41.662Z,59.99
2024-05-09T00:33:10.858Z,60.24
2024-05-09T00:35:39.789Z,60.04
2024-05-09T00:38:08.112Z,60.40
2024-05-09T00:40:43.350Z,60.44
2024-05-09T00:43:12.944Z,60.47
2024-05-09T00:45:42.031Z,60.73
2024-05-09T00:48:14.342Z,60.79
2024-05-09T00:50:46.208Z,60.94
2024-05-09T00:53:17.283Z,61.00
2024-05-09T00:55:47.376Z,60.82
2024-05-09T00:58:18.386Z,61.03
2024-05-09T01:00:46.562Z,61.17
2024-05-09T01:03:14.693Z,61.46
2024-05-09T01:05:44.359Z,61.59
2024-05-09T01:08:13.368Z,62.00
2024-05-09T01:10:44.828Z,61.79
2024-05-09T01:13:14.013Z,61.70
2024-05-09T01:15:42.257Z,61.52
2024-05-09T01:18:12.376Z,61.83
2024-05-09T01:20:44.170Z,61.57
2024-05-09T01:23:15.218Z,61.43
2024-05-09T01:25:46.206Z,61.73
2024-05-09T01:28:15.088Z,61.99
2024-05-09T01:30:43.515Z,62.04
2024-05-09T01:33:12.507Z,62.10
2024-05-09T01:35:42.519Z,62.23
2024-05-09T01:38:17.079Z,64.82
2024-05-09T01:40:45.838Z,64.00
2024-05-09T01:43:13.681Z,55.21
2024-05-09T01:45:41.743Z,53.09
2024-05-09T01:48:10.780Z,54.62
2024-05-09T01:50:42.025Z,55.88
2024-05-09T01:53:14.347Z,56.55
2024-05-09T01:55:43.902Z,57.18
2024-05-09T01:58:11.763Z,57.64
2024-05-09T02:00:42.282Z,58.09
2024-05-09T02:03:14.962Z,58.85
2024-05-09T02:05:47.453Z,58.62
2024-05-09T02:08:18.926Z,58.89
2024-05-09T02:10:49.025Z,59.22
2024-05-09T02:13:17.172Z,59.75
2024-05-09T02:15:45.173Z,60.50
2024-05-09T02:18:13.524Z,60.74
2024-05-09T02:20:42.918Z,61.03
2024-05-09T02:23:11.475Z,61.59
2024-05-09T02:25:40.077Z,62.00
2024-05-09T02:28:07.885Z,61.92
2024-05-09T02:30:40.040Z,61.78
2024-05-09T02:33:12.292Z,61.87
2024-05-09T02:35:42.999Z,61.94
2024-05-09T02:38:12.386Z,61.40
2024-05-09T02:40:40.801Z,61.42
2024-05-09T02:43:12.199Z,61.77
2024-05-09T02:45:41.193Z,62.24
2024-05-09T02:48:13.395Z,61.81
2024-05-09T02:50:44.072Z,62.28
2024-05-09T02:53:12.768Z,66.16
2024-05-09T02:55:42.301Z,62.93
2024-05-09T02:58:11.104Z,54.50
2024-05-09T03:00:41.807Z,52.52
2024-05-09T03:03:13.628Z,53.66
2024-05-09T03:05:44.648Z,54.93
2024-05-09T03:08:13.026Z,55.75
2024-05-09T03:10:41.074Z,56.27
2024-05-09T03:13:12.164Z,57.14
2024-05-09T03:15:40.700Z,57.57
2024-05-09T03:18:08.725Z,57.89
2024-05-09T03:20:37.698Z,58.04
2024-05-09T03:23:07.863Z,58.65
2024-05-09T03:25:36.440Z,59.04
2024-05-09T03:28:04.366Z,59.22
2024-05-09T03:30:39.924Z,58.58
2024-05-09T03:33:12.230Z,58.03
2024-05-09T03:35:41.089Z,58.38
2024-05-09T03:38:09.103Z,58.77
2024-05-09T03:40:44.044Z,59.23
2024-05-09T03:43:13.159Z,59.67
2024-05-09T03:45:42.060Z,60.12
2024-05-09T03:48:10.109Z,60.51
2024-05-09T03:50:38.290Z,60.48
2024-05-09T03:53:09.723Z,60.61
2024-05-09T03:55:37.392Z,60.89
2024-05-09T03:58:07.669Z,61.24
2024-05-09T04:00:38.998Z,61.59
2024-05-09T04:03:10.613Z,61.74
2024-05-09T04:05:42.349Z,60.80
2024-05-09T04:08:11.496Z,60.39
2024-05-09T04:10:39.433Z,60.29
2024-05-09T04:13:07.080Z,60.52
2024-05-09T04:15:34.720Z,60.78
2024-05-09T04:18:02.869Z,60.74
2024-05-09T04:20:37.998Z,61.54
2024-05-09T04:23:13.559Z,61.97
2024-05-09T04:25:44.223Z,61.81
2024-05-09T04:28:12.486Z,61.89
2024-05-09T04:30:41.630Z,61.14
2024-05-09T04:33:12.566Z,60.90
2024-05-09T04:35:43.435Z,60.59
2024-05-09T04:38:12.643Z,60.92
2024-05-09T04:40:40.415Z,61.31
2024-05-09T04:43:15.128Z,61.52
2024-05-09T04:45:42.997Z,61.76
2024-05-09T04:48:11.137Z,60.79
2024-05-09T04:50:39.869Z,60.92
2024-05-09T04:53:10.411Z,60.32
2024-05-09T04:55:40.466Z,59.90
2024-05-09T04:58:09.487Z,60.25
2024-05-09T05:00:39.886Z,59.58
2024-05-09T05:03:13.196Z,58.93
2024-05-09T05:05:45.220Z,58.97
2024-05-09T05:08:18.940Z,58.57
2024-05-09T05:10:48.570Z,58.59
2024-05-09T05:13:20.063Z,58.55
2024-05-09T05:15:50.470Z,58.63
2024-05-09T05:18:18.963Z,58.07
2024-05-09T05:20:47.040Z,58.33
2024-05-09T05:23:16.662Z,57.84
2024-05-09T05:25:48.186Z,57.63
2024-05-09T05:28:16.919Z,57.13
2024-05-09T05:30:45.576Z,57.42
2024-05-09T05:33:14.926Z,57.33
2024-05-09T05:35:43.098Z,57.45
2024-05-09T05:38:11.442Z,57.18
2024-05-09T05:40:40.517Z,56.92
2024-05-09T05:43:10.466Z,56.92
2024-05-09T05:45:39.200Z,56.90
2024-05-09T05:48:07.949Z,56.84
2024-05-09T05:50:38.080Z,56.86
2024-05-09T05:53:08.208Z,56.85
2024-05-09T05:55:37.582Z,56.86
2024-05-09T05:58:05.326Z,56.70
2024-05-09T06:00:38.929Z,56.69
2024-05-09T06:03:09.264Z,56.46
2024-05-09T06:05:43.451Z,56.55
2024-05-09T06:08:12.124Z,56.46
2024-05-09T06:10:41.373Z,56.49
2024-05-09T06:13:13.389Z,56.56
2024-05-09T06:15:42.602Z,56.72
2024-05-09T06:18:12.205Z,56.46
2024-05-09T06:20:41.928Z,56.43
2024-05-09T06:23:10.933Z,56.75
2024-05-09T06:25:38.762Z,56.78
2024-05-09T06:28:06.682Z,56.50
2024-05-09T06:30:40.078Z,56.07
2024-05-09T06:33:12.889Z,56.72
2024-05-09T06:35:43.565Z,56.61
2024-05-09T06:38:11.949Z,56.66
2024-05-09T06:40:42.596Z,56.74
2024-05-09T06:43:17.691Z,56.82
2024-05-09T06:45:48.678Z,56.88
2024-05-09T06:48:20.885Z,56.94
2024-05-09T06:50:49.804Z,56.45
2024-05-09T06:53:21.741Z,56.45
2024-05-09T06:55:49.963Z,55.94
2024-05-09T06:58:17.701Z,56.06
2024-05-09T07:00:45.443Z,56.26
2024-05-09T07:03:16.990Z,56.56
2024-05-09T07:05:48.348Z,56.73
2024-05-09T07:08:18.012Z,56.32
2024-05-09T07:10:46.117Z,55.89
2024-05-09T07:13:15.078Z,56.01
2024-05-09T07:15:43.599Z,55.83
2024-05-09T07:18:13.150Z,56.08
2024-05-09T07:20:41.610Z,55.94
2024-05-09T07:23:10.602Z,55.57
2024-05-09T07:25:40.279Z,55.59
2024-05-09T07:28:14.185Z,56.03
2024-05-09T07:30:42.507Z,55.16
2024-05-09T07:33:19.802Z,55.22
2024-05-09T07:35:48.540Z,55.15
2024-05-09T07:38:16.309Z,55.39
2024-05-09T07:40:44.098Z,55.31
2024-05-09T07:43:12.974Z,55.54
2024-05-09T07:45:50.453Z,55.70
2024-05-09T07:52:37.264Z,55.34
2024-05-09T07:53:46.561Z,55.39
2024-05-09T07:56:18.594Z,55.17
2024-05-09T07:58:47.307Z,55.15
2024-05-09T08:01:15.428Z,54.52
2024-05-09T08:03:43.391Z,54.56
2024-05-09T08:06:11.199Z,54.83
2024-05-09T08:08:38.897Z,54.63
2024-05-09T08:11:06.778Z,54.77
2024-05-09T08:13:34.723Z,54.30
2024-05-09T08:16:02.529Z,54.33
2024-05-09T08:18:30.519Z,53.45
2024-05-09T08:20:58.797Z,54.12
2024-05-09T08:23:26.445Z,53.70
2024-05-09T08:25:54.115Z,54.54
2024-05-09T08:28:21.811Z,53.73
2024-05-09T08:30:49.851Z,53.40
2024-05-09T08:33:17.857Z,52.31
2024-05-09T08:35:45.724Z,52.53
2024-05-09T08:38:13.449Z,52.96
2024-05-09T08:40:41.700Z,52.86
2024-05-09T08:43:11.875Z,51.85
2024-05-09T08:45:45.123Z,52.47
2024-05-09T08:48:15.398Z,51.90
2024-05-09T08:50:45.130Z,51.52
2024-05-09T08:53:16.471Z,51.11
2024-05-09T08:55:46.243Z,51.10
2024-05-09T08:58:17.933Z,50.43
2024-05-09T09:00:46.633Z,50.35
2024-05-09T09:03:17.861Z,50.82
2024-05-09T09:05:53.382Z,50.16
2024-05-09T09:08:21.851Z,49.37
2024-05-09T09:10:53.703Z,48.88
2024-05-09T09:13:21.401Z,48.63
2024-05-09T09:15:50.282Z,47.90
2024-05-09T09:18:18.832Z,47.85
2024-05-09T09:20:46.950Z,47.12
2024-05-09T09:23:14.857Z,45.92
2024-05-09T09:25:42.618Z,47.15
2024-05-09T09:28:10.779Z,47.50
2024-05-09T09:30:40.384Z,46.83
2024-05-09T09:33:09.389Z,46.11
2024-05-09T09:35:39.686Z,43.84
2024-05-09T09:38:09.910Z,44.60
2024-05-09T09:40:46.673Z,44.56
2024-05-09T09:43:22.493Z,45.91
2024-05-09T09:45:52.394Z,45.63
2024-05-09T09:48:22.171Z,45.23
2024-05-09T09:50:55.417Z,44.41
2024-05-09T09:53:23.604Z,43.95
2024-05-09T09:55:52.870Z,43.81
2024-05-09T09:58:21.409Z,43.53
2024-05-09T10:00:49.384Z,43.68
2024-05-09T10:03:17.261Z,41.82
2024-05-09T10:05:47.349Z,39.81
2024-05-09T10:08:17.658Z,41.47
2024-05-09T10:10:50.081Z,43.12
2024-05-09T10:13:19.942Z,39.90
2024-05-09T10:15:52.416Z,39.67
2024-05-09T10:18:28.210Z,38.68
2024-05-09T10:20:59.473Z,38.44
2024-05-09T10:23:32.892Z,40.09
2024-05-09T10:26:02.996Z,40.38
2024-05-09T10:28:32.940Z,40.43
2024-05-09T10:31:11.304Z,40.37
2024-05-09T10:33:45.256Z,38.42
2024-05-09T10:36:23.710Z,38.98
2024-05-09T10:38:53.486Z,37.50
2024-05-09T10:41:22.986Z,36.49
2024-05-09T10:43:51.615Z,37.47
2024-05-09T10:46:20.163Z,38.61
2024-05-09T10:48:48.732Z,36.99
2024-05-09T10:51:19.291Z,37.89
2024-05-09T10:53:48.235Z,36.89
2024-05-09T10:56:16.588Z,35.73
2024-05-09T10:58:44.657Z,36.48
2024-05-09T11:01:13.283Z,37.67
2024-05-09T11:03:41.711Z,37.84
2024-05-09T11:06:11.184Z,38.31
2024-05-09T11:08:39.311Z,37.72
2024-05-09T11:11:08.614Z,36.02
2024-05-09T11:13:38.313Z,35.49
2024-05-09T11:16:17.412Z,35.40
2024-05-09T11:18:57.053Z,35.41
2024-05-09T11:21:25.106Z,34.77
2024-05-09T11:23:53.305Z,34.76
2024-05-09T11:26:25.213Z,33.55
2024-05-09T11:28:53.146Z,33.48
2024-05-09T11:31:21.043Z,34.28
2024-05-09T11:33:49.200Z,34.17
2024-05-09T11:36:17.225Z,35.12
2024-05-09T11:38:44.959Z,33.87
2024-05-09T11:41:17.532Z,33.56
2024-05-09T11:43:45.525Z,33.95
2024-05-09T11:46:13.666Z,33.74
2024-05-09T11:48:41.785Z,32.88
2024-05-09T11:51:09.688Z,33.66
2024-05-09T11:53:37.435Z,33.59
2024-05-09T11:56:05.638Z,32.08
2024-05-09T11:58:34.820Z,31.84
2024-05-09T12:01:02.862Z,31.93
2024-05-09T12:03:30.989Z,30.25
2024-05-09T12:05:59.181Z,31.73
2024-05-09T12:08:27.247Z,31.24
2024-05-09T12:10:55.154Z,31.84
2024-05-09T12:13:23.228Z,33.01
2024-05-09T12:15:51.038Z,32.90
2024-05-09T12:18:18.835Z,32.51
2024-05-09T12:20:46.679Z,31.96
2024-05-09T12:23:14.581Z,31.96
2024-05-09T12:25:42.262Z,32.49
2024-05-09T12:28:10.008Z,29.15
2024-05-09T12:30:40.106Z,28.99
2024-05-09T12:33:13.079Z,29.22
2024-05-09T12:35:44.486Z,29.90
2024-05-09T12:38:15.302Z,29.65
2024-05-09T12:40:43.600Z,29.79
2024-05-09T12:43:11.947Z,31.47
2024-05-09T12:45:40.490Z,30.59
2024-05-09T12:48:11.742Z,29.94
2024-05-09T12:50:41.233Z,30.26
2024-05-09T12:53:09.345Z,29.59
2024-05-09T12:55:44.803Z,30.64
2024-05-09T12:58:23.891Z,29.66
2024-05-09T13:00:52.471Z,29.79
2024-05-09T13:03:21.273Z,28.60
2024-05-09T13:05:50.658Z,27.94
2024-05-09T13:08:19.599Z,28.10
2024-05-09T13:10:48.116Z,28.50
2024-05-09T13:13:16.149Z,29.16
2024-05-09T13:15:44.029Z,29.92
2024-05-09T13:18:11.823Z,30.13
2024-05-09T13:20:39.523Z,30.84
2024-05-09T13:23:08.474Z,29.91
2024-05-09T13:25:38.051Z,29.52
2024-05-09T13:28:07.682Z,30.55
2024-05-09T13:30:40.426Z,29.99
2024-05-09T13:33:11.632Z,28.63
2024-05-09T13:35:47.359Z,28.15
2024-05-09T13:38:19.819Z,28.11
2024-05-09T13:40:48.433Z,28.57
2024-05-09T13:43:17.638Z,28.23
2024-05-09T13:45:46.014Z,28.62
2024-05-09T13:48:14.185Z,29.83
2024-05-09T13:50:42.219Z,29.37
2024-05-09T13:53:09.905Z,29.53
2024-05-09T13:55:38.696Z,29.51
2024-05-09T13:58:08.326Z,29.54
2024-05-09T14:00:44.974Z,30.79
2024-05-09T14:03:19.691Z,30.12
2024-05-09T14:05:50.835Z,30.15
2024-05-09T14:08:21.434Z,30.29
2024-05-09T14:10:49.601Z,30.51
2024-05-09T14:13:17.993Z,30.67
2024-05-09T14:15:46.667Z,30.93
2024-05-09T14:18:14.986Z,30.83
2024-05-09T14:20:43.171Z,31.24
2024-05-09T14:23:11.323Z,31.42
2024-05-09T14:25:42.692Z,30.57
2024-05-09T14:28:13.051Z,31.59
2024-05-09T14:30:42.653Z,31.45
2024-05-09T14:33:11.578Z,31.74
2024-05-09T14:35:39.566Z,31.60
2024-05-09T14:38:08.819Z,31.64
2024-05-09T14:40:42.370Z,31.88
2024-05-09T14:43:13.829Z,32.03
2024-05-09T14:45:43.474Z,31.75
2024-05-09T14:48:14.156Z,31.72
2024-05-09T14:50:42.229Z,31.67
2024-05-09T14:53:11.209Z,32.71
2024-05-09T14:55:41.349Z,33.23
2024-05-09T14:58:11.506Z,31.80
2024-05-09T15:00:45.922Z,32.66
2024-05-09T15:03:18.652Z,32.85
2024-05-09T15:05:47.751Z,34.01
2024-05-09T15:08:17.274Z,32.79
2024-05-09T15:10:45.182Z,31.91
2024-05-09T15:13:15.548Z,32.51
2024-05-09T15:15:44.584Z,32.85
2024-05-09T15:18:14.065Z,32.68
2024-05-09T15:20:44.560Z,32.48
2024-05-09T15:23:12.496Z,32.81
2024-05-09T15:25:40.424Z,31.86
2024-05-09T15:28:08.770Z,31.88
2024-05-09T15:30:37.238Z,33.64
2024-05-09T15:33:06.969Z,33.48
2024-05-09T15:35:35.951Z,33.57
2024-05-09T15:38:04.571Z,33.78
2024-05-09T15:40:39.388Z,32.78
2024-05-09T15:43:10.603Z,32.76
2024-05-09T15:45:40.864Z,33.69
2024-05-09T15:48:10.326Z,33.26
2024-05-09T15:50:41.213Z,32.90
2024-05-09T15:53:12.541Z,32.78
2024-05-09T15:55:42.172Z,33.53
2024-05-09T15:58:10.712Z,33.02
2024-05-09T16:00:42.114Z,33.27
2024-05-09T16:03:13.116Z,34.25
2024-05-09T16:05:46.578Z,33.96
2024-05-09T16:08:15.585Z,34.87
2024-05-09T16:10:45.974Z,33.79
2024-05-09T16:13:15.611Z,33.14
2024-05-09T16:15:43.993Z,33.91
2024-05-09T16:18:12.817Z,35.66
2024-05-09T16:20:42.514Z,35.86
2024-05-09T16:23:12.558Z,36.49
2024-05-09T16:25:45.147Z,35.18
2024-05-09T16:28:13.454Z,34.38
2024-05-09T16:30:41.656Z,34.43
2024-05-09T16:33:11.793Z,33.99
2024-05-09T16:35:40.535Z,34.11
2024-05-09T16:38:08.811Z,34.75
2024-05-09T16:40:40.056Z,36.00
2024-05-09T16:43:11.757Z,35.28
2024-05-09T16:45:41.274Z,35.07
2024-05-09T16:48:09.299Z,36.26
2024-05-09T16:50:37.928Z,37.41
2024-05-09T16:53:06.829Z,37.49
2024-05-09T16:55:36.004Z,36.76
2024-05-09T16:58:06.387Z,36.50
2024-05-09T17:00:40.811Z,36.30
2024-05-09T17:03:15.577Z,37.81
2024-05-09T17:05:46.771Z,37.82
2024-05-09T17:08:17.781Z,36.49
2024-05-09T17:10:48.905Z,37.35
2024-05-09T17:13:18.144Z,38.36
2024-05-09T17:15:46.855Z,39.08
2024-05-09T17:18:15.079Z,38.94
2024-05-09T17:20:42.892Z,39.47
2024-05-09T17:23:13.919Z,39.37
2024-05-09T17:25:42.860Z,39.91
2024-05-09T17:28:11.239Z,40.78
2024-05-09T17:30:42.492Z,40.45
2024-05-09T17:33:12.399Z,40.74
2024-05-09T17:35:41.121Z,41.39
2024-05-09T17:38:09.279Z,41.63
2024-05-09T17:40:38.462Z,42.40
2024-05-09T17:43:09.458Z,41.67
2024-05-09T17:45:40.087Z,42.33
2024-05-09T17:48:10.111Z,42.49
2024-05-09T17:50:39.117Z,42.76
2024-05-09T17:53:10.954Z,42.62
2024-05-09T17:55:39.901Z,42.70
2024-05-09T17:58:08.424Z,42.76
2024-05-09T18:00:39.972Z,43.00
2024-05-09T18:03:14.432Z,43.64
2024-05-09T18:05:44.786Z,44.20
2024-05-09T18:08:13.718Z,44.56
2024-05-09T18:10:42.237Z,45.01
2024-05-09T18:13:13.700Z,45.53
2024-05-09T18:15:41.999Z,46.27
2024-05-09T18:18:10.490Z,46.43
2024-05-09T18:20:43.817Z,46.28
2024-05-09T18:23:16.583Z,46.01
2024-05-09T18:25:47.122Z,46.88
2024-05-09T18:28:17.143Z,47.30
2024-05-09T18:30:45.509Z,47.48
2024-05-09T18:33:13.934Z,46.66
2024-05-09T18:35:44.994Z,47.10
2024-05-09T18:38:12.939Z,47.41
2024-05-09T18:40:42.828Z,48.00
2024-05-09T18:43:11.926Z,48.52
2024-05-09T18:45:39.989Z,48.79
2024-05-09T18:48:09.662Z,48.27
2024-05-09T18:50:40.492Z,48.06
2024-05-09T18:53:11.808Z,47.62
2024-05-09T18:55:42.044Z,47.58
2024-05-09T18:58:09.894Z,47.55
2024-05-09T19:00:40.343Z,48.26
2024-05-09T19:03:12.915Z,48.56
2024-05-09T19:05:44.695Z,48.97
2024-05-09T19:08:14.922Z,49.38
2024-05-09T19:10:46.050Z,50.09
2024-05-09T19:13:14.898Z,50.25
2024-05-09T19:15:44.117Z,50.48
2024-05-09T19:18:13.700Z,50.05
2024-05-09T19:20:42.383Z,49.87
2024-05-09T19:23:11.623Z,50.16
2024-05-09T19:25:39.704Z,50.36
2024-05-09T19:28:07.456Z,50.73
2024-05-09T19:30:40.243Z,50.92
2024-05-09T19:33:13.024Z,51.69
2024-05-09T19:35:42.331Z,51.56
2024-05-09T19:38:10.854Z,51.32
2024-05-09T19:40:38.710Z,51.35
2024-05-09T19:43:06.975Z,51.13
2024-05-09T19:45:36.098Z,50.92
2024-05-09T19:48:06.103Z,50.94
2024-05-09T19:50:41.059Z,50.59
2024-05-09T19:53:13.378Z,50.75
2024-05-09T19:55:42.280Z,50.79
2024-05-09T19:58:10.799Z,51.32
2024-05-09T20:00:41.511Z,51.54
2024-05-09T20:03:12.424Z,51.61
2024-05-09T20:05:47.377Z,51.91
2024-05-09T20:08:16.110Z,52.40
2024-05-09T20:10:44.026Z,52.78
2024-05-09T20:13:11.892Z,53.17
2024-05-09T20:15:39.918Z,53.17
2024-05-09T20:18:08.114Z,53.11
2024-05-09T20:20:40.088Z,53.34
2024-05-09T20:23:11.384Z,53.68
2024-05-09T20:25:40.052Z,54.27
2024-05-09T20:28:08.050Z,54.59
2024-05-09T20:30:36.435Z,54.49
2024-05-09T20:33:07.447Z,54.90
2024-05-09T20:35:36.553Z,54.84
2024-05-09T20:38:04.872Z,54.96
2024-05-09T20:40:37.159Z,54.74
2024-05-09T20:43:10.696Z,54.64
2024-05-09T20:45:39.814Z,54.46
2024-05-09T20:48:09.217Z,54.39
2024-05-09T20:50:40.850Z,54.52
2024-05-09T20:53:12.897Z,54.49
2024-05-09T20:55:45.309Z,54.23
2024-05-09T20:58:14.148Z,54.51
2024-05-09T21:00:44.716Z,54.33
2024-05-09T21:03:16.513Z,54.20
2024-05-09T21:05:46.339Z,54.52
2024-05-09T21:08:14.748Z,54.29
2024-05-09T21:10:42.669Z,54.99
2024-05-09T21:13:11.256Z,55.22
2024-05-09T21:15:39.139Z,55.16
2024-05-09T21:18:08.158Z,55.13
2024-05-09T21:20:37.510Z,55.31
2024-05-09T21:23:05.443Z,55.25
2024-05-09T21:25:33.150Z,55.29
2024-05-09T21:28:01.143Z,55.74
2024-05-09T21:30:38.532Z,55.87
2024-05-09T21:33:12.849Z,55.96
2024-05-09T21:35:43.846Z,55.85
2024-05-09T21:38:14.371Z,56.10
2024-05-09T21:40:43.656Z,55.92
2024-05-09T21:43:11.664Z,55.82
2024-05-09T21:45:39.574Z,56.10
2024-05-09T21:48:08.084Z,56.51
2024-05-09T21:50:40.351Z,56.98
2024-05-09T21:53:11.772Z,57.35
2024-05-09T21:55:39.865Z,57.64
2024-05-09T21:58:07.973Z,58.11
2024-05-09T22:00:39.174Z,58.34
2024-05-09T22:03:08.767Z,58.35
2024-05-09T22:05:39.162Z,58.75
2024-05-09T22:08:07.568Z,58.64
2024-05-09T22:10:36.936Z,58.68
2024-05-09T22:13:06.659Z,58.61
2024-05-09T22:15:37.433Z,58.78
2024-05-09T22:18:08.020Z,58.87
2024-05-09T22:20:38.912Z,58.93
2024-05-09T22:23:08.733Z,59.00
2024-05-09T22:25:38.550Z,59.04
2024-05-09T22:28:06.720Z,59.14
2024-05-09T22:30:38.202Z,59.09
2024-05-09T22:33:09.717Z,59.26
2024-05-09T22:35:40.363Z,59.57
2024-05-09T22:38:08.928Z,60.12
2024-05-09T22:40:45.481Z,59.97
2024-05-09T22:43:19.022Z,60.18
2024-05-09T22:45:47.358Z,60.41
2024-05-09T22:48:15.574Z,60.15
2024-05-09T22:50:43.425Z,60.35
2024-05-09T22:53:11.128Z,60.43
2024-05-09T22:55:38.784Z,60.52
2024-05-09T22:58:06.657Z,60.82
2024-05-09T23:00:34.813Z,61.14
2024-05-09T23:03:03.212Z,61.28
2024-05-09T23:05:32.074Z,61.52
2024-05-09T23:08:02.995Z,61.53
2024-05-09T23:10:36.155Z,61.80
2024-05-09T23:13:07.401Z,61.52
2024-05-09T23:15:39.688Z,61.37
2024-05-09T23:18:07.978Z,61.28
2024-05-09T23:20:38.975Z,61.38
2024-05-09T23:23:09.801Z,61.42
2024-05-09T23:25:38.774Z,61.12
2024-05-09T23:28:07.287Z,61.05
2024-05-09T23:30:38.853Z,60.97
2024-05-09T23:33:13.094Z,60.81
2024-05-09T23:35:43.523Z,60.86
2024-05-09T23:38:12.307Z,60.69
2024-05-09T23:40:41.707Z,60.65
2024-05-09T23:43:12.207Z,60.45
2024-05-09T23:45:41.556Z,60.26
2024-05-09T23:48:10.452Z,60.04
2024-05-09T23:50:40.071Z,59.92
2024-05-09T23:53:09.806Z,60.02
2024-05-09T23:55:38.998Z,59.93
2024-05-09T23:58:07.804Z,59.80
